createdAt,value
2023-01-12T00:02:15.462Z,9.02
2023-01-12T00:04:45.315Z,9.07
2023-01-12T00:07:15.995Z,9.02
2023-01-12T00:09:43.997Z,9.18
2023-01-12T00:12:13.207Z,9.07
2023-01-12T00:14:41.437Z,9.03
2023-01-12T00:17:11.871Z,9.10
2023-01-12T00:19:40.236Z,9.23
2023-01-12T00:22:11.555Z,9.07
2023-01-12T00:24:41.667Z,9.19
2023-01-12T00:27:11.430Z,9.14
2023-01-12T00:29:40.298Z,9.07
2023-01-12T00:32:12.488Z,9.06
2023-01-12T00:34:40.415Z,9.07
2023-01-12T00:37:10.148Z,9.07
2023-01-12T00:39:43.072Z,9.19
2023-01-12T00:42:36.923Z,9.21
2023-01-12T00:45:24.786Z,9.22
2023-01-12T00:47:53.449Z,9.47
2023-01-12T00:50:21.412Z,9.46
2023-01-12T00:52:50.653Z,9.53
2023-01-12T00:55:18.793Z,9.57
2023-01-12T00:57:46.688Z,9.40
2023-01-12T01:00:15.777Z,9.24
2023-01-12T01:02:43.670Z,9.26
2023-01-12T01:05:11.655Z,9.49
2023-01-12T01:07:39.643Z,9.49
2023-01-12T01:10:10.301Z,9.47
2023-01-12T01:12:38.194Z,9.49
2023-01-12T01:15:06.919Z,9.55
2023-01-12T01:17:35.180Z,9.54
2023-01-12T01:20:05.014Z,9.51
2023-01-12T01:22:32.896Z,9.66
2023-01-12T01:25:00.758Z,9.50
2023-01-12T01:27:29.972Z,9.32
2023-01-12T01:29:57.810Z,9.41
2023-01-12T01:32:26.804Z,9.48
2023-01-12T01:34:54.653Z,9.65
2023-01-12T01:37:22.950Z,9.71
2023-01-12T01:39:50.787Z,9.71
2023-01-12T01:42:28.851Z,9.47
2023-01-12T01:45:00.564Z,9.78
2023-01-12T01:47:35.430Z,9.71
2023-01-12T01:50:07.063Z,9.59
2023-01-12T01:52:38.595Z,9.62
2023-01-12T01:55:09.667Z,9.61
2023-01-12T01:57:44.192Z,9.53
2023-01-12T02:00:15.121Z,9.50
2023-01-12T02:02:45.153Z,9.69
2023-01-12T02:05:18.744Z,9.65
2023-01-12T02:07:46.747Z,9.67
2023-01-12T02:10:15.112Z,9.72
2023-01-12T02:13:00.743Z,9.65
2023-01-12T02:16:05.409Z,9.59
2023-01-12T02:18:37.490Z,9.54
2023-01-12T02:21:21.580Z,9.59
2023-01-12T02:24:28.215Z,9.74
2023-01-12T02:27:14.149Z,9.59
2023-01-12T02:30:07.721Z,9.65
2023-01-12T02:32:45.300Z,9.73
2023-01-12T02:35:22.597Z,9.51
2023-01-12T02:37:59.863Z,9.52
2023-01-12T02:40:36.087Z,9.58
2023-01-12T02:43:09.154Z,9.62
2023-01-12T02:45:43.359Z,9.49
2023-01-12T02:48:18.325Z,9.44
2023-01-12T02:50:52.339Z,9.46
2023-01-12T02:53:25.627Z,9.51
2023-01-12T02:55:54.475Z,9.56
2023-01-12T02:58:25.360Z,9.59
2023-01-12T03:00:57.250Z,9.69
2023-01-12T03:03:27.500Z,9.74
2023-01-12T03:05:57.011Z,9.90
2023-01-12T03:08:28.979Z,9.63
2023-01-12T03:11:15.088Z,9.63
2023-01-12T03:13:48.557Z,9.63
2023-01-12T03:16:20.073Z,9.49
2023-01-12T03:18:55.590Z,9.44
2023-01-12T03:21:30.636Z,9.60
2023-01-12T03:24:03.694Z,9.57
2023-01-12T03:26:35.201Z,9.58
2023-01-12T03:29:09.423Z,9.62
2023-01-12T03:31:38.720Z,9.63
2023-01-12T03:34:08.659Z,9.70
2023-01-12T03:36:47.079Z,9.59
2023-01-12T03:39:22.880Z,9.52
2023-01-12T03:41:58.373Z,9.65
2023-01-12T03:44:35.772Z,9.57
2023-01-12T03:47:10.300Z,9.46
2023-01-12T03:49:46.957Z,9.66
2023-01-12T03:52:16.744Z,9.67
2023-01-12T03:54:47.612Z,9.73
2023-01-12T03:57:16.906Z,9.55
2023-01-12T03:59:45.164Z,9.16
2023-01-12T04:02:14.424Z,9.48
2023-01-12T04:04:43.652Z,9.36
2023-01-12T04:07:11.563Z,9.28
2023-01-12T04:09:39.519Z,9.46
2023-01-12T04:12:13.574Z,9.67
2023-01-12T04:14:43.237Z,9.62
2023-01-12T04:17:13.275Z,9.62
2023-01-12T04:19:43.009Z,9.73
2023-01-12T04:22:32.669Z,9.72
2023-01-12T04:25:00.503Z,9.56
2023-01-12T04:27:28.424Z,9.54
2023-01-12T04:29:56.405Z,9.78
2023-01-12T04:32:24.300Z,9.65
2023-01-12T04:34:53.533Z,9.81
2023-01-12T04:37:21.627Z,9.75
2023-01-12T04:39:49.662Z,9.52
2023-01-12T04:42:34.967Z,9.31
2023-01-12T04:45:02.981Z,9.39
2023-01-12T04:47:31.093Z,9.40
2023-01-12T04:50:00.320Z,9.45
2023-01-12T04:52:28.357Z,9.46
2023-01-12T04:54:56.955Z,9.66
2023-01-12T04:57:25.169Z,9.60
2023-01-12T04:59:53.116Z,9.73
2023-01-12T05:02:21.342Z,9.75
2023-01-12T05:04:49.569Z,9.58
2023-01-12T05:07:18.873Z,9.43
2023-01-12T05:10:04.148Z,9.47
2023-01-12T05:12:32.093Z,9.49
2023-01-12T05:14:59.975Z,9.38
2023-01-12T05:17:28.645Z,9.41
2023-01-12T05:19:56.554Z,9.37
2023-01-12T05:22:25.871Z,9.31
2023-01-12T05:24:53.789Z,9.28
2023-01-12T05:27:21.681Z,9.53
2023-01-12T05:29:49.824Z,9.45
2023-01-12T05:32:17.876Z,9.32
2023-01-12T05:34:45.715Z,9.26
2023-01-12T05:37:13.678Z,9.23
2023-01-12T05:39:43.075Z,9.03
2023-01-12T05:42:28.352Z,9.19
2023-01-12T05:44:56.364Z,9.07
2023-01-12T05:47:24.437Z,9.12
2023-01-12T05:49:52.348Z,8.98
2023-01-12T05:52:20.360Z,8.95
2023-01-12T05:54:49.796Z,8.84
2023-01-12T05:57:17.753Z,8.76
2023-01-12T05:59:45.768Z,9.01
2023-01-12T06:02:17.446Z,8.89
2023-01-12T06:04:45.840Z,9.05
2023-01-12T06:07:14.683Z,9.16
2023-01-12T06:09:43.231Z,9.08
2023-01-12T06:12:30.823Z,9.10
2023-01-12T06:14:58.874Z,8.96
2023-01-12T06:17:26.839Z,8.95
2023-01-12T06:19:55.150Z,8.88
2023-01-12T06:22:23.103Z,8.93
2023-01-12T06:24:51.056Z,9.07
2023-01-12T06:27:20.360Z,9.07
2023-01-12T06:29:49.461Z,9.07
2023-01-12T06:32:17.345Z,8.94
2023-01-12T06:34:45.301Z,9.01
2023-01-12T06:37:13.244Z,9.05
2023-01-12T06:39:41.207Z,9.17
2023-01-12T06:42:26.717Z,9.06
2023-01-12T06:44:56.558Z,9.19
2023-01-12T06:47:24.609Z,9.34
2023-01-12T06:49:52.869Z,9.42
2023-01-12T06:52:21.806Z,9.49
2023-01-12T06:54:49.795Z,9.59
2023-01-12T06:57:17.946Z,9.57
2023-01-12T06:59:46.114Z,9.63
2023-01-12T07:02:17.016Z,9.67
2023-01-12T07:04:45.412Z,9.79
2023-01-12T07:07:13.402Z,9.83
2023-01-12T07:09:41.477Z,9.80
2023-01-12T07:12:09.685Z,9.90
2023-01-12T07:14:37.811Z,10.00
2023-01-12T07:17:05.715Z,9.98
2023-01-12T07:19:35.072Z,10.13
2023-01-12T07:22:03.143Z,10.06
2023-01-12T07:24:31.244Z,10.14
2023-01-12T07:26:59.415Z,10.23
2023-01-12T07:29:27.399Z,10.21
2023-01-12T07:31:55.550Z,10.18
2023-01-12T07:34:23.735Z,10.27
2023-01-12T07:36:53.425Z,10.37
2023-01-12T07:39:21.455Z,10.30
2023-01-12T07:42:06.780Z,10.25
2023-01-12T07:44:36.642Z,10.30
2023-01-12T07:47:04.737Z,10.46
2023-01-12T07:49:32.682Z,10.55
2023-01-12T07:52:01.991Z,10.54
2023-01-12T07:54:30.646Z,10.59
2023-01-12T07:56:59.387Z,10.56
2023-01-12T07:59:27.593Z,10.67
2023-01-12T08:01:55.650Z,10.65
2023-01-12T08:04:24.238Z,10.69
2023-01-12T08:06:52.238Z,10.79
2023-01-12T08:09:21.743Z,10.77
2023-01-12T08:11:49.844Z,10.77
2023-01-12T08:14:27.459Z,10.91
2023-01-12T08:17:01.468Z,10.97
2023-01-12T08:19:37.158Z,10.96
2023-01-12T08:22:09.678Z,11.03
2023-01-12T08:24:45.601Z,10.99
2023-01-12T08:27:13.839Z,10.91
2023-01-12T08:29:46.385Z,11.06
2023-01-12T08:32:17.952Z,11.06
2023-01-12T08:34:49.396Z,11.04
2023-01-12T08:37:21.232Z,10.99
2023-01-12T08:39:51.868Z,11.18
2023-01-12T08:42:20.380Z,11.12
2023-01-12T08:44:48.304Z,11.04
2023-01-12T08:47:19.069Z,11.03
2023-01-12T08:49:47.419Z,11.09
2023-01-12T08:52:16.667Z,11.16
2023-01-12T08:54:45.005Z,11.15
2023-01-12T08:57:16.170Z,11.26
2023-01-12T08:59:44.199Z,11.16
2023-01-12T09:02:12.886Z,11.15
2023-01-12T09:04:41.089Z,11.22
2023-01-12T09:07:10.182Z,11.20
2023-01-12T09:09:38.790Z,11.27
2023-01-12T09:12:07.413Z,11.34
2023-01-12T09:14:38.842Z,11.30
2023-01-12T09:17:07.662Z,11.21
2023-01-12T09:19:35.631Z,11.12
2023-01-12T09:22:03.883Z,11.13
2023-01-12T09:24:31.804Z,11.16
2023-01-12T09:27:00.166Z,11.24
2023-01-12T09:29:28.193Z,11.19
2023-01-12T09:31:57.618Z,11.27
2023-01-12T09:34:25.802Z,11.26
2023-01-12T09:36:56.206Z,11.23
2023-01-12T09:39:28.482Z,11.37
2023-01-12T09:42:16.689Z,11.42
2023-01-12T09:45:07.217Z,11.47
2023-01-12T09:47:40.140Z,11.21
2023-01-12T09:50:13.071Z,11.21
2023-01-12T09:52:45.943Z,11.21
2023-01-12T09:55:20.697Z,11.35
2023-01-12T09:58:11.572Z,11.48
2023-01-12T10:00:39.536Z,11.35
2023-01-12T10:03:17.057Z,11.40
2023-01-12T10:05:48.998Z,11.56
2023-01-12T10:08:27.515Z,11.67
2023-01-12T10:11:07.682Z,11.60
2023-01-12T10:14:01.839Z,11.67
2023-01-12T10:16:34.837Z,11.60
2023-01-12T10:19:12.190Z,11.21
2023-01-12T10:21:42.545Z,11.13
2023-01-12T10:24:13.093Z,11.16
2023-01-12T10:26:43.766Z,11.24
2023-01-12T10:29:13.418Z,11.36
2023-01-12T10:31:41.827Z,11.36
2023-01-12T10:34:13.144Z,11.45
2023-01-12T10:36:44.664Z,11.46
2023-01-12T10:39:30.619Z,11.56
2023-01-12T10:42:44.033Z,11.56
2023-01-12T10:45:18.343Z,11.64
2023-01-12T10:47:47.132Z,11.76
2023-01-12T10:50:28.859Z,11.71
2023-01-12T10:53:02.940Z,11.55
2023-01-12T10:55:33.864Z,11.63
2023-01-12T10:58:02.907Z,11.74
2023-01-12T11:00:32.230Z,11.83
2023-01-12T11:03:00.228Z,11.96
2023-01-12T11:05:34.229Z,11.74
2023-01-12T11:08:03.201Z,11.70
2023-01-12T11:10:33.263Z,11.71
2023-01-12T11:13:05.963Z,11.50
2023-01-12T11:15:39.053Z,11.56
2023-01-12T11:18:32.738Z,11.55
2023-01-12T11:21:06.775Z,11.74
2023-01-12T11:23:41.818Z,11.64
2023-01-12T11:26:18.408Z,11.82
2023-01-12T11:28:50.086Z,11.76
2023-01-12T11:31:22.603Z,11.67
2023-01-12T11:33:54.582Z,11.86
2023-01-12T11:36:28.286Z,11.75
2023-01-12T11:39:03.135Z,11.79
2023-01-12T11:41:38.938Z,11.80
2023-01-12T11:44:15.344Z,11.78
2023-01-12T11:46:47.585Z,11.76
2023-01-12T11:49:23.704Z,11.98
2023-01-12T11:51:57.123Z,12.03
2023-01-12T11:54:26.890Z,11.91
2023-01-12T11:57:13.688Z,12.12
2023-01-12T11:59:53.650Z,12.01
2023-01-12T12:02:34.064Z,12.18
2023-01-12T12:05:13.390Z,12.41
2023-01-12T12:07:58.912Z,12.19
2023-01-12T12:10:36.005Z,12.34
2023-01-12T12:13:20.350Z,12.42
2023-01-12T12:15:57.025Z,12.26
2023-01-12T12:18:39.445Z,12.33
2023-01-12T12:21:15.970Z,12.24
2023-01-12T12:23:54.251Z,12.20
2023-01-12T12:26:27.410Z,12.30
2023-01-12T12:29:14.968Z,12.30
2023-01-12T12:32:02.913Z,12.01
2023-01-12T12:34:52.149Z,12.09
2023-01-12T12:37:31.751Z,12.18
2023-01-12T12:40:11.968Z,12.26
2023-01-12T12:43:22.743Z,12.28
2023-01-12T12:45:56.866Z,12.21
2023-01-12T12:48:28.999Z,11.86
2023-01-12T12:51:03.866Z,11.90
2023-01-12T12:53:35.572Z,11.90
2023-01-12T12:56:10.169Z,12.03
2023-01-12T12:58:44.523Z,12.15
2023-01-12T13:01:55.173Z,12.28
2023-01-12T13:04:57.667Z,12.40
2023-01-12T13:07:27.469Z,12.06
2023-01-12T13:10:10.712Z,12.29
2023-01-12T13:12:42.263Z,12.20
2023-01-12T13:15:26.929Z,12.12
2023-01-12T13:17:55.785Z,12.04
2023-01-12T13:21:02.474Z,11.97
2023-01-12T13:23:52.220Z,12.05
2023-01-12T13:26:52.119Z,12.19
2023-01-12T13:29:51.458Z,12.09
2023-01-12T13:32:43.604Z,12.16
2023-01-12T13:35:29.367Z,12.10
2023-01-12T13:38:04.719Z,12.23
2023-01-12T13:40:33.942Z,12.40
2023-01-12T13:43:16.981Z,12.44
2023-01-12T13:45:53.541Z,12.24
2023-01-12T13:48:22.284Z,12.20
2023-01-12T13:50:53.809Z,12.26
2023-01-12T13:53:27.620Z,12.12
2023-01-12T13:55:58.508Z,12.19
2023-01-12T13:58:27.542Z,12.16
2023-01-12T14:00:59.804Z,12.21
2023-01-12T14:03:43.559Z,12.02
2023-01-12T14:06:24.190Z,12.05
2023-01-12T14:09:06.752Z,12.04
2023-01-12T14:11:50.475Z,12.17
2023-01-12T14:14:53.859Z,12.25
2023-01-12T14:17:46.282Z,12.16
2023-01-12T14:20:20.171Z,12.10
2023-01-12T14:22:48.560Z,12.09
2023-01-12T14:25:20.472Z,12.01
2023-01-12T14:27:53.371Z,12.18
2023-01-12T14:30:22.694Z,12.38
2023-01-12T14:32:53.735Z,12.32
2023-01-12T14:35:23.560Z,12.23
2023-01-12T14:37:53.698Z,12.29
2023-01-12T14:40:25.459Z,12.26
2023-01-12T14:43:13.783Z,12.25
2023-01-12T14:46:13.217Z,12.25
2023-01-12T14:48:44.066Z,11.90
2023-01-12T14:51:19.831Z,11.89
2023-01-12T14:53:49.556Z,11.84
2023-01-12T14:56:21.982Z,11.87
2023-01-12T14:58:50.544Z,12.13
2023-01-12T15:01:36.129Z,11.94
2023-01-12T15:04:06.904Z,12.06
2023-01-12T15:06:39.884Z,12.05
2023-01-12T15:09:23.664Z,12.05
2023-01-12T15:11:51.528Z,12.02
2023-01-12T15:14:24.892Z,11.89
2023-01-12T15:17:11.830Z,11.80
2023-01-12T15:19:58.798Z,11.57
2023-01-12T15:22:46.508Z,11.70
2023-01-12T15:25:38.351Z,11.50
2023-01-12T15:28:08.690Z,11.52
2023-01-12T15:30:39.772Z,11.67
2023-01-12T15:33:07.912Z,11.61
2023-01-12T15:35:39.839Z,11.71
2023-01-12T15:38:08.997Z,11.55
2023-01-12T15:40:37.064Z,11.56
2023-01-12T15:43:06.625Z,11.76
2023-01-12T15:45:36.558Z,11.59
2023-01-12T15:48:06.673Z,11.64
2023-01-12T15:50:35.731Z,11.74
2023-01-12T15:53:11.936Z,11.65
2023-01-12T15:55:40.136Z,11.53
2023-01-12T15:58:08.438Z,11.43
2023-01-12T16:00:36.987Z,11.43
2023-01-12T16:03:06.187Z,11.22
2023-01-12T16:05:34.493Z,11.46
2023-01-12T16:08:02.843Z,11.47
2023-01-12T16:10:32.517Z,11.45
2023-01-12T16:13:01.966Z,11.45
2023-01-12T16:15:30.190Z,11.38
2023-01-12T16:17:58.289Z,11.34
2023-01-12T16:20:26.740Z,11.53
2023-01-12T16:22:54.985Z,11.42
2023-01-12T16:25:22.943Z,11.35
2023-01-12T16:27:52.661Z,11.37
2023-01-12T16:30:20.829Z,11.36
2023-01-12T16:32:49.629Z,11.44
2023-01-12T16:35:17.964Z,11.53
2023-01-12T16:37:46.154Z,11.77
2023-01-12T16:40:14.437Z,11.49
2023-01-12T16:42:42.415Z,11.52
2023-01-12T16:45:12.470Z,11.57
2023-01-12T16:47:40.858Z,11.39
2023-01-12T16:50:10.041Z,11.33
2023-01-12T16:52:38.364Z,11.45
2023-01-12T16:55:07.172Z,11.67
2023-01-12T16:57:40.436Z,11.29
2023-01-12T17:00:10.213Z,11.34
2023-01-12T17:02:40.872Z,11.38
2023-01-12T17:05:10.182Z,11.42
2023-01-12T17:07:38.727Z,11.54
2023-01-12T17:10:07.894Z,11.58
2023-01-12T17:12:35.801Z,11.61
2023-01-12T17:15:04.631Z,11.74
2023-01-12T17:17:33.200Z,11.50
2023-01-12T17:20:03.443Z,11.40
2023-01-12T17:22:32.636Z,11.26
2023-01-12T17:25:00.840Z,11.41
2023-01-12T17:27:29.012Z,11.31
2023-01-12T17:29:57.527Z,11.39
2023-01-12T17:32:25.572Z,11.47
2023-01-12T17:34:53.613Z,11.35
2023-01-12T17:37:22.904Z,11.35
2023-01-12T17:39:51.244Z,11.39
2023-01-12T17:42:36.954Z,11.50
2023-01-12T17:45:07.066Z,11.59
2023-01-12T17:47:35.468Z,11.47
2023-01-12T17:52:34.656Z,11.50
2023-01-12T17:55:03.039Z,11.45
2023-01-12T17:57:32.204Z,11.50
2023-01-12T18:00:00.223Z,11.37
2023-01-12T18:02:28.423Z,11.33
2023-01-12T18:04:57.051Z,11.31
2023-01-12T18:07:25.065Z,11.43
2023-01-12T18:09:54.424Z,11.35
2023-01-12T18:12:24.826Z,11.48
2023-01-12T18:14:53.237Z,11.39
2023-01-12T18:17:23.112Z,11.46
2023-01-12T18:19:51.396Z,11.40
2023-01-12T18:22:19.710Z,11.47
2023-01-12T18:24:47.844Z,11.44
2023-01-12T18:27:17.589Z,11.42
2023-01-12T18:29:45.886Z,11.24
2023-01-12T18:32:13.882Z,11.25
2023-01-12T18:34:42.354Z,11.33
2023-01-12T18:37:11.608Z,11.27
2023-01-12T18:39:44.035Z,11.31
2023-01-12T18:42:30.204Z,11.44
2023-01-12T18:45:01.103Z,11.43
2023-01-12T18:47:46.938Z,11.40
2023-01-12T18:50:32.834Z,11.49
2023-01-12T18:53:19.958Z,11.41
2023-01-12T18:55:48.520Z,11.33
2023-01-12T18:58:16.871Z,11.30
2023-01-12T19:00:46.405Z,11.40
2023-01-12T19:03:17.696Z,11.48
2023-01-12T19:05:55.644Z,11.48
2023-01-12T19:08:41.408Z,11.71
2023-01-12T19:11:11.037Z,11.54
2023-01-12T19:13:57.200Z,11.51
2023-01-12T19:16:44.969Z,11.45
2023-01-12T19:19:13.632Z,11.40
2023-01-12T19:21:59.359Z,11.51
2023-01-12T19:24:59.492Z,11.65
2023-01-12T19:27:44.877Z,11.61
2023-01-12T19:30:13.930Z,11.71
2023-01-12T19:32:43.989Z,11.53
2023-01-12T19:35:12.210Z,11.57
2023-01-12T19:37:42.503Z,11.65
2023-01-12T19:40:18.365Z,11.69
2023-01-12T19:43:04.422Z,11.64
2023-01-12T19:45:32.700Z,11.75
2023-01-12T19:48:04.070Z,11.75
2023-01-12T19:50:32.161Z,11.53
2023-01-12T19:53:00.555Z,11.42
2023-01-12T19:55:28.673Z,11.61
2023-01-12T19:57:58.096Z,11.59
2023-01-12T20:00:27.757Z,11.53
2023-01-12T20:02:55.879Z,11.55
2023-01-12T20:05:25.374Z,11.74
2023-01-12T20:07:54.246Z,11.61
2023-01-12T20:10:23.605Z,11.52
2023-01-12T20:12:52.423Z,11.66
2023-01-12T20:15:21.718Z,11.63
2023-01-12T20:17:50.501Z,11.72
2023-01-12T20:20:19.721Z,11.61
2023-01-12T20:22:51.631Z,11.58
2023-01-12T20:25:20.094Z,11.67
2023-01-12T20:27:49.267Z,11.45
2023-01-12T20:30:32.005Z,11.66
2023-01-12T20:33:05.101Z,11.71
2023-01-12T20:35:33.300Z,11.49
2023-01-12T20:38:04.078Z,11.60
2023-01-12T20:40:32.369Z,11.80
2023-01-12T20:43:00.401Z,11.73
2023-01-12T20:45:28.644Z,11.65
2023-01-12T20:47:56.659Z,11.55
2023-01-12T20:50:25.791Z,11.68
2023-01-12T20:52:54.371Z,11.62
2023-01-12T20:55:23.962Z,11.55
2023-01-12T20:57:52.320Z,11.56
2023-01-12T21:00:21.027Z,11.64
2023-01-12T21:02:49.080Z,11.49
2023-01-12T21:05:17.330Z,11.56
2023-01-12T21:07:45.349Z,11.53
2023-01-12T21:10:13.343Z,11.50
2023-01-12T21:12:42.996Z,11.53
2023-01-12T21:15:13.579Z,11.65
2023-01-12T21:17:42.769Z,11.36
2023-01-12T21:20:12.454Z,11.44
2023-01-12T21:22:40.800Z,11.53
2023-01-12T21:25:10.879Z,11.51
2023-01-12T21:27:39.111Z,11.44
2023-01-12T21:30:11.988Z,11.47
2023-01-12T21:32:40.728Z,11.42
2023-01-12T21:35:09.464Z,11.56
2023-01-12T21:37:37.734Z,11.50
2023-01-12T21:40:07.362Z,11.44
2023-01-12T21:42:52.972Z,11.75
2023-01-12T21:45:23.791Z,11.63
2023-01-12T21:47:51.862Z,11.67
2023-01-12T21:50:19.843Z,11.66
2023-01-12T21:52:48.450Z,11.69
2023-01-12T21:55:17.285Z,11.63
2023-01-12T21:57:46.493Z,11.62
2023-01-12T22:00:16.102Z,11.58
2023-01-12T22:02:47.158Z,11.67
2023-01-12T22:05:16.648Z,11.98
2023-01-12T22:07:44.600Z,11.87
2023-01-12T22:10:23.363Z,11.81
2023-01-12T22:12:54.155Z,11.72
2023-01-12T22:15:22.856Z,11.51
2023-01-12T22:17:52.192Z,11.57
2023-01-12T22:20:20.569Z,11.52
2023-01-12T22:22:49.420Z,11.32
2023-01-12T22:25:18.869Z,11.37
2023-01-12T22:27:48.191Z,11.30
2023-01-12T22:30:18.692Z,11.17
2023-01-12T22:32:46.924Z,11.32
2023-01-12T22:35:16.552Z,11.25
2023-01-12T22:37:44.746Z,11.21
2023-01-12T22:40:16.820Z,11.20
2023-01-12T22:43:03.710Z,11.19
2023-01-12T22:45:35.671Z,11.11
2023-01-12T22:48:03.943Z,10.99
2023-01-12T22:50:33.658Z,11.16
2023-01-12T22:53:01.583Z,11.27
2023-01-12T22:55:29.997Z,11.32
2023-01-12T22:57:58.058Z,11.14
2023-01-12T23:00:26.213Z,11.04
2023-01-12T23:03:03.395Z,11.10
2023-01-12T23:05:36.551Z,11.07
2023-01-12T23:08:07.088Z,10.95
2023-01-12T23:10:35.794Z,11.09
2023-01-12T23:13:15.917Z,11.11
2023-01-12T23:15:49.748Z,10.95
2023-01-12T23:18:19.405Z,11.05
2023-01-12T23:20:49.343Z,11.11
2023-01-12T23:23:18.557Z,11.04
2023-01-12T23:25:47.170Z,11.33
2023-01-12T23:28:16.154Z,10.97
2023-01-12T23:30:44.953Z,10.84
2023-01-12T23:33:13.071Z,10.96
2023-01-12T23:35:42.728Z,10.94
2023-01-12T23:38:15.720Z,10.67
2023-01-12T23:40:43.611Z,10.87
2023-01-12T23:43:11.668Z,10.53
2023-01-12T23:45:39.667Z,10.66
2023-01-12T23:48:08.227Z,10.81
2023-01-12T23:50:36.399Z,10.84
2023-01-12T23:53:04.941Z,10.68
2023-01-12T23:55:34.570Z,10.68
2023-01-12T23:58:02.558Z,10.38
